Date,TemperatureHighF,TemperatureAvgF,TemperatureLowF,DewpointHighF,DewpointAvgF,DewpointLowF,HumidityHigh,HumidityAvg,HumidityLow,PressureMaxIn,PressureMinIn,WindSpeedMaxMPH,WindSpeedAvgMPH,GustSpeedMaxMPH,PrecipitationSumIn
2013-9-1,77,59,46,55,50,46,100,77,37,30.56,30.45,22,4,22,0.00
2013-9-2,79,62,49,54,50,45,99,70,31,30.57,30.47,14,3,16,0.00
2013-9-3,79,61,45,52,48,43,98,67,29,30.59,30.48,17,5,18,0.00
2013-9-4,79,59,49,59,51,45,96,79,31,30.64,30.55,14,4,23,0.00
2013-9-5,82,62,45,55,49,36,100,69,19,30.66,30.52,11,3,14,0.00
2013-9-6,80,61,44,54,48,41,100,67,28,30.62,30.48,22,5,22,0.00
2013-9-7,80,60,43,50,46,36,98,66,21,30.55,30.42,26,5,26,0.00
2013-9-8,76,59,46,53,48,40,97,70,29,30.48,30.27,17,4,25,0.00
2013-9-9,63,53,44,57,51,44,100,92,68,30.35,30.26,14,3,19,0.00
2013-9-10,66,56,50,55,52,47,100,88,58,30.42,30.30,23,2,28,0.00
2013-9-11,72,57,50,55,52,48,100,84,45,30.47,30.39,19,2,19,0.00
2013-9-12,69,56,46,56,51,46,100,87,51,30.50,30.37,26,3,29,0.00
2013-9-13,67,55,49,54,50,46,100,87,51,30.42,30.24,23,3,26,0.00
2013-9-14,58,51,45,54,49,45,100,94,77,30.32,30.24,13,2,15,0.00
2013-9-15,65,51,44,52,48,44,100,90,56,30.47,30.29,20,3,21,0.00
2013-9-16,66,55,43,54,48,42,100,79,49,30.50,30.39,13,3,15,0.00
2013-9-17,70,51,37,52,44,37,100,81,37,30.46,30.24,20,4,20,0.00
2013-9-18,63,49,43,54,47,42,100,92,51,30.31,30.21,24,3,34,0.00
2013-9-19,65,49,37,51,41,34,100,78,33,30.40,30.26,18,4,19,0.00
2013-9-20,69,47,29,41,34,28,100,68,23,30.43,30.35,15,5,15,0.00
2013-9-21,68,50,33,45,40,33,100,73,37,30.39,30.20,16,4,18,0.00
2013-9-22,63,47,39,51,45,39,100,94,63,30.21,29.91,17,2,22,0.00
2013-9-23,53,43,32,41,36,32,100,81,47,30.41,29.91,31,6,31,0.00
2013-9-24,64,43,27,40,32,27,100,74,26,30.46,30.26,11,4,15,0.00
2013-9-25,70,48,29,39,33,28,100,64,23,30.26,29.90,27,8,32,0.00
2013-9-26,66,48,31,38,31,25,97,59,22,30.02,29.94,29,7,30,0.00
2013-9-27,50,40,31,43,36,29,100,85,50,30.25,29.90,21,4,27,0.00
2013-9-28,56,36,22,37,30,21,100,81,42,30.47,30.24,13,2,13,0.00
2013-9-29,61,40,24,36,29,23,98,72,25,30.46,30.34,15,5,21,0.00
2013-9-30,67,45,29,37,32,28,96,67,29,30.38,30.24,15,5,19,0.00